createdAt,value
2023-05-14T00:00:22.305Z,100269.22
2023-05-14T00:02:49.357Z,100264.56
2023-05-14T00:05:15.808Z,100261.09
2023-05-14T00:07:42.250Z,100261.91
2023-05-14T00:10:08.991Z,100257.28
2023-05-14T00:12:35.498Z,100260.41
2023-05-14T00:15:02.095Z,100254.59
2023-05-14T00:17:28.853Z,100256.38
2023-05-14T00:19:55.280Z,100251.03
2023-05-14T00:22:21.626Z,100248.22
2023-05-14T00:24:48.062Z,100247.75
2023-05-14T00:27:14.728Z,100242.09
2023-05-14T00:29:41.161Z,100246.47
2023-05-14T00:32:07.856Z,100243.38
2023-05-14T00:34:35.705Z,100232.56
2023-05-14T00:37:02.176Z,100229.09
2023-05-14T00:39:28.788Z,100230.41
2023-05-14T00:41:55.141Z,100231.41
2023-05-14T00:44:21.575Z,100227.94
2023-05-14T00:46:48.034Z,100227.47
2023-05-14T00:49:15.603Z,100226.75
2023-05-14T00:51:42.874Z,100228.41
2023-05-14T00:54:09.362Z,100232.69
2023-05-14T00:56:35.892Z,100232.72
2023-05-14T00:59:02.244Z,100225.41
2023-05-14T01:01:28.906Z,100221.44
2023-05-14T01:03:57.822Z,100225.41
2023-05-14T01:06:45.842Z,100231.28
2023-05-14T01:09:18.965Z,100225.72
2023-05-14T01:12:19.213Z,100229.44
2023-05-14T01:15:10.734Z,100218.75
2023-05-14T01:17:46.931Z,100223.78
2023-05-14T01:20:13.750Z,100210.22
2023-05-14T01:22:40.098Z,100220.69
2023-05-14T01:25:07.272Z,100218.88
2023-05-14T01:27:52.778Z,100224.47
2023-05-14T01:30:28.444Z,100218.81
2023-05-14T01:33:00.446Z,100225.03
2023-05-14T01:35:29.406Z,100221.25
2023-05-14T01:38:01.431Z,100221.34
2023-05-14T01:40:28.941Z,100217.06
2023-05-14T01:42:56.545Z,100218.66
2023-05-14T01:45:24.106Z,100219.75
2023-05-14T01:47:51.195Z,100219.69
2023-05-14T01:50:18.079Z,100214.81
2023-05-14T01:52:44.558Z,100212.50
2023-05-14T01:55:11.196Z,100219.88
2023-05-14T01:57:37.544Z,100215.50
2023-05-14T02:00:04.325Z,100206.69
2023-05-14T02:02:30.803Z,100210.84
2023-05-14T02:04:57.563Z,100209.38
2023-05-14T02:07:23.929Z,100219.84
2023-05-14T02:09:50.348Z,100210.53
2023-05-14T02:12:16.841Z,100220.53
2023-05-14T02:14:43.297Z,100210.22
2023-05-14T02:17:09.821Z,100212.22
2023-05-14T02:19:36.321Z,100212.03
2023-05-14T02:22:02.822Z,100207.22
2023-05-14T02:24:29.273Z,100204.06
2023-05-14T02:26:55.708Z,100202.91
2023-05-14T02:29:22.051Z,100200.25
2023-05-14T02:31:48.450Z,100198.59
2023-05-14T02:34:14.879Z,100200.91
2023-05-14T02:36:41.249Z,100194.59
2023-05-14T02:39:07.709Z,100195.91
2023-05-14T02:41:34.121Z,100201.91
2023-05-14T02:44:00.754Z,100196.09
2023-05-14T02:46:27.300Z,100201.25
2023-05-14T02:48:53.853Z,100204.91
2023-05-14T02:51:21.255Z,100207.22
2023-05-14T02:53:47.773Z,100200.91
2023-05-14T02:56:14.210Z,100203.56
2023-05-14T02:58:40.999Z,100200.75
2023-05-14T03:01:07.796Z,100206.84
2023-05-14T03:03:36.770Z,100199.22
2023-05-14T03:06:04.593Z,100205.19
2023-05-14T03:08:30.966Z,100204.84
2023-05-14T03:10:57.381Z,100197.84
2023-05-14T03:13:23.760Z,100201.53
2023-05-14T03:15:54.577Z,100209.97
2023-05-14T03:18:21.457Z,100200.84
2023-05-14T03:20:47.851Z,100202.00
2023-05-14T03:23:15.081Z,100204.31
2023-05-14T03:25:41.485Z,100209.13
2023-05-14T03:28:07.840Z,100203.47
2023-05-14T03:30:34.288Z,100193.69
2023-05-14T03:33:00.699Z,100191.47
2023-05-14T03:35:27.103Z,100201.47
2023-05-14T03:37:53.541Z,100199.25
2023-05-14T03:40:21.397Z,100191.81
2023-05-14T03:42:48.060Z,100186.97
2023-05-14T03:45:14.443Z,100185.47
2023-05-14T03:47:41.028Z,100181.56
2023-05-14T03:50:08.498Z,100186.53
2023-05-14T03:52:34.890Z,100189.44
2023-05-14T03:55:01.244Z,100180.66
2023-05-14T03:57:27.684Z,100182.13
2023-05-14T03:59:54.116Z,100178.13
2023-05-14T04:02:20.649Z,100176.34
2023-05-14T04:04:47.435Z,100176.66
2023-05-14T04:07:13.853Z,100170.88
2023-05-14T04:09:40.291Z,100167.56
2023-05-14T04:12:07.284Z,100161.88
2023-05-14T04:14:33.712Z,100159.38
2023-05-14T04:17:00.471Z,100165.03
2023-05-14T04:19:26.991Z,100164.88
2023-05-14T04:21:53.431Z,100160.53
2023-05-14T04:24:19.809Z,100163.50
2023-05-14T04:26:46.350Z,100170.94
2023-05-14T04:29:12.787Z,100162.19
2023-05-14T04:31:39.649Z,100158.16
2023-05-14T04:34:06.075Z,100162.50
2023-05-14T04:36:32.567Z,100163.78
2023-05-14T04:38:58.939Z,100159.59
2023-05-14T04:41:25.366Z,100159.44
2023-05-14T04:43:51.809Z,100155.59
2023-05-14T04:46:18.372Z,100153.25
2023-05-14T04:48:45.108Z,100151.25
2023-05-14T04:51:11.625Z,100152.13
2023-05-14T04:53:38.288Z,100148.31
2023-05-14T04:56:04.727Z,100144.31
2023-05-14T04:58:34.515Z,100149.00
2023-05-14T05:01:02.738Z,100143.19
2023-05-14T05:03:29.482Z,100146.34
2023-05-14T05:05:56.096Z,100139.66
2023-05-14T05:08:22.568Z,100146.84
2023-05-14T05:10:48.945Z,100147.66
2023-05-14T05:13:16.940Z,100148.34
2023-05-14T05:15:43.888Z,100148.97
2023-05-14T05:18:10.590Z,100145.66
2023-05-14T05:20:36.944Z,100141.31
2023-05-14T05:23:03.445Z,100142.34
2023-05-14T05:25:29.813Z,100140.31
2023-05-14T05:27:56.167Z,100139.00
2023-05-14T05:30:22.814Z,100140.97
2023-05-14T05:32:49.645Z,100137.09
2023-05-14T05:35:16.379Z,100141.13
2023-05-14T05:37:43.103Z,100145.22
2023-05-14T05:40:10.266Z,100133.91
2023-05-14T05:42:36.685Z,100137.63
2023-05-14T05:45:03.189Z,100129.78
2023-05-14T05:47:30.131Z,100136.06
2023-05-14T05:49:56.872Z,100137.63
2023-05-14T05:52:23.456Z,100136.25
2023-05-14T05:54:49.907Z,100127.72
2023-05-14T05:57:16.349Z,100122.56
2023-05-14T05:59:43.323Z,100126.88
2023-05-14T06:02:10.016Z,100128.84
2023-05-14T06:04:36.412Z,100129.56
2023-05-14T06:07:02.813Z,100126.56
2023-05-14T06:09:29.277Z,100129.22
2023-05-14T06:11:55.790Z,100131.03
2023-05-14T06:14:22.191Z,100130.47
2023-05-14T06:16:48.564Z,100124.97
2023-05-14T06:19:15.442Z,100126.44
2023-05-14T06:21:42.024Z,100121.75
2023-05-14T06:24:08.540Z,100123.09
2023-05-14T06:26:34.972Z,100120.00
2023-05-14T06:29:01.397Z,100126.59
2023-05-14T06:31:27.805Z,100122.28
2023-05-14T06:33:54.191Z,100130.28
2023-05-14T06:36:20.627Z,100121.38
2023-05-14T06:38:46.989Z,100125.16
2023-05-14T06:41:13.385Z,100120.34
2023-05-14T06:43:39.749Z,100117.22
2023-05-14T06:46:06.238Z,100112.38
2023-05-14T06:48:33.020Z,100120.13
2023-05-14T06:50:59.480Z,100116.75
2023-05-14T06:53:25.858Z,100120.91
2023-05-14T06:55:52.353Z,100113.19
2023-05-14T06:58:18.708Z,100119.81
2023-05-14T07:00:45.114Z,100109.69
2023-05-14T07:03:11.558Z,100108.72
2023-05-14T07:05:38.048Z,100106.44
2023-05-14T07:08:04.531Z,100103.19
2023-05-14T07:10:31.186Z,100103.47
2023-05-14T07:12:57.879Z,100094.00
2023-05-14T07:15:24.373Z,100094.59
2023-05-14T07:17:50.719Z,100095.97
2023-05-14T07:20:17.160Z,100099.00
2023-05-14T07:22:43.555Z,100097.81
2023-05-14T07:25:10.010Z,100084.13
2023-05-14T07:27:36.464Z,100081.19
2023-05-14T07:30:02.951Z,100084.03
2023-05-14T07:32:29.632Z,100083.91
2023-05-14T07:34:56.262Z,100079.47
2023-05-14T07:37:24.140Z,100085.09
2023-05-14T07:39:50.904Z,100071.47
2023-05-14T07:42:31.734Z,100068.53
2023-05-14T07:45:01.288Z,100070.72
2023-05-14T07:47:27.727Z,100064.50
2023-05-14T07:49:55.231Z,100060.00
2023-05-14T07:52:22.071Z,100057.78
2023-05-14T07:54:50.532Z,100059.84
2023-05-14T07:57:17.439Z,100065.41
2023-05-14T07:59:44.167Z,100058.72
2023-05-14T08:02:12.986Z,100063.09
2023-05-14T08:04:39.778Z,100062.56
2023-05-14T08:07:08.021Z,100061.16
2023-05-14T08:09:34.877Z,100058.69
2023-05-14T08:12:01.416Z,100061.94
2023-05-14T08:14:28.481Z,100054.38
2023-05-14T08:16:54.921Z,100051.53
2023-05-14T08:19:23.176Z,100059.59
2023-05-14T08:21:49.874Z,100052.22
2023-05-14T08:24:16.316Z,100051.81
2023-05-14T08:26:42.936Z,100040.72
2023-05-14T08:29:10.813Z,100044.91
2023-05-14T08:31:37.944Z,100035.94
2023-05-14T08:34:04.640Z,100034.28
2023-05-14T08:36:31.492Z,100037.56
2023-05-14T08:38:57.978Z,100045.47
2023-05-14T08:41:25.303Z,100042.63
2023-05-14T08:44:28.824Z,100051.38
2023-05-14T08:46:55.739Z,100041.06
2023-05-14T08:49:40.874Z,100039.44
2023-05-14T08:52:09.287Z,100033.84
2023-05-14T08:54:36.074Z,100041.44
2023-05-14T08:57:04.290Z,100042.00
2023-05-14T08:59:31.081Z,100039.31
2023-05-14T09:02:02.166Z,100035.59
2023-05-14T09:04:29.621Z,100039.31
2023-05-14T09:06:56.057Z,100034.38
2023-05-14T09:09:23.401Z,100030.22
2023-05-14T09:11:52.151Z,100028.19
2023-05-14T09:14:19.427Z,100030.88
2023-05-14T09:16:47.181Z,100025.13
2023-05-14T09:19:15.689Z,100026.16
2023-05-14T09:21:44.548Z,100024.56
2023-05-14T09:24:19.308Z,100021.31
2023-05-14T09:26:50.592Z,100024.22
2023-05-14T09:29:17.532Z,100020.56
2023-05-14T09:31:44.062Z,100017.22
2023-05-14T09:34:10.994Z,100016.88
2023-05-14T09:36:37.555Z,100004.53
2023-05-14T09:39:04.849Z,100009.91
2023-05-14T09:41:31.291Z,100002.31
2023-05-14T09:43:57.919Z,100001.72
2023-05-14T09:46:24.285Z,99993.00
2023-05-14T09:48:50.923Z,99996.75
2023-05-14T09:51:21.227Z,99986.84
2023-05-14T09:53:48.414Z,99983.94
2023-05-14T09:56:14.796Z,99983.53
2023-05-14T09:58:41.181Z,99973.19
2023-05-14T10:01:08.030Z,99976.53
2023-05-14T10:03:34.446Z,99980.00
2023-05-14T10:06:05.296Z,99972.38
2023-05-14T10:08:35.889Z,99969.44
2023-05-14T10:11:08.364Z,99977.72
2023-05-14T10:13:41.577Z,99964.09
2023-05-14T10:16:25.392Z,99964.06
2023-05-14T10:18:57.434Z,99959.75
2023-05-14T10:21:25.462Z,99951.25
2023-05-14T10:23:52.497Z,99949.16
2023-05-14T10:26:18.997Z,99944.03
2023-05-14T10:28:45.522Z,99944.47
2023-05-14T10:31:12.761Z,99942.28
2023-05-14T10:33:50.507Z,99940.16
2023-05-14T10:36:18.517Z,99941.50
2023-05-14T10:38:45.008Z,99944.97
2023-05-14T10:41:17.529Z,99937.94
2023-05-14T10:43:44.360Z,99930.81
2023-05-14T10:46:12.101Z,99934.22
2023-05-14T10:48:42.134Z,99936.66
2023-05-14T10:51:12.281Z,99936.53
2023-05-14T10:53:41.115Z,99936.16
2023-05-14T10:56:16.822Z,99934.88
2023-05-14T10:58:44.387Z,99933.13
2023-05-14T11:01:13.165Z,99925.75
2023-05-14T11:03:46.822Z,99917.84
2023-05-14T11:06:15.846Z,99923.44
2023-05-14T11:08:42.638Z,99923.19
2023-05-14T11:11:09.831Z,99922.19
2023-05-14T11:13:36.589Z,99925.38
2023-05-14T11:16:15.054Z,99921.66
2023-05-14T11:18:47.947Z,99909.47
2023-05-14T11:21:14.352Z,99909.50
2023-05-14T11:23:40.740Z,99903.44
2023-05-14T11:26:07.146Z,99905.09
2023-05-14T11:28:34.189Z,99905.31
2023-05-14T11:31:00.658Z,99899.94
2023-05-14T11:33:27.737Z,99902.66
2023-05-14T11:35:54.231Z,99901.81
2023-05-14T11:38:21.249Z,99904.00
2023-05-14T11:40:57.163Z,99891.75
2023-05-14T11:43:23.898Z,99883.75
2023-05-14T11:45:52.444Z,99892.03
2023-05-14T11:48:22.513Z,99877.13
2023-05-14T11:50:51.056Z,99879.25
2023-05-14T11:53:24.624Z,99880.81
2023-05-14T11:55:52.277Z,99877.56
2023-05-14T11:58:18.911Z,99876.44
2023-05-14T12:00:45.676Z,99871.78
2023-05-14T12:03:12.544Z,99864.53
2023-05-14T12:05:39.758Z,99858.59
2023-05-14T12:08:41.668Z,99860.78
2023-05-14T12:11:09.272Z,99859.34
2023-05-14T12:13:36.496Z,99852.94
2023-05-14T12:16:03.197Z,99850.53
2023-05-14T12:18:31.751Z,99850.09
2023-05-14T12:21:05.992Z,99844.69
2023-05-14T12:23:33.089Z,99858.53
2023-05-14T12:26:07.079Z,99846.56
2023-05-14T12:28:38.240Z,99842.09
2023-05-14T12:31:05.500Z,99844.56
2023-05-14T12:33:31.946Z,99841.72
2023-05-14T12:36:09.927Z,99846.81
2023-05-14T12:38:41.236Z,99834.38
2023-05-14T12:41:07.697Z,99834.94
2023-05-14T12:43:34.170Z,99832.84
2023-05-14T12:46:00.715Z,99821.91
2023-05-14T12:48:27.142Z,99820.88
2023-05-14T12:50:53.522Z,99813.16
2023-05-14T12:53:19.873Z,99819.34
2023-05-14T12:55:46.758Z,99809.84
2023-05-14T12:58:13.173Z,99808.63
2023-05-14T13:00:39.693Z,99808.44
2023-05-14T13:03:06.124Z,99806.56
2023-05-14T13:05:33.258Z,99812.38
2023-05-14T13:08:02.199Z,99810.72
2023-05-14T13:10:28.513Z,99803.66
2023-05-14T13:12:56.343Z,99797.88
2023-05-14T13:15:23.436Z,99807.88
2023-05-14T13:17:50.194Z,99797.03
2023-05-14T13:20:18.266Z,99799.66
2023-05-14T13:22:45.003Z,99798.66
2023-05-14T13:25:11.384Z,99804.06
2023-05-14T13:27:37.776Z,99795.31
2023-05-14T13:30:04.443Z,99799.13
2023-05-14T13:32:30.967Z,99794.66
2023-05-14T13:34:57.442Z,99797.19
2023-05-14T13:37:24.735Z,99789.00
2023-05-14T13:39:51.612Z,99791.09
2023-05-14T13:42:18.228Z,99785.25
2023-05-14T13:44:44.589Z,99787.06
2023-05-14T13:47:10.978Z,99791.25
2023-05-14T13:49:37.349Z,99782.28
2023-05-14T13:52:03.934Z,99786.03
2023-05-14T13:54:30.297Z,99780.03
2023-05-14T13:56:56.743Z,99786.94
2023-05-14T13:59:23.864Z,99785.72
2023-05-14T14:01:51.509Z,99786.78
2023-05-14T14:04:18.129Z,99779.81
2023-05-14T14:06:44.484Z,99774.81
2023-05-14T14:09:12.578Z,99770.97
2023-05-14T14:11:39.446Z,99775.69
2023-05-14T14:14:05.865Z,99764.03
2023-05-14T14:16:32.362Z,99769.13
2023-05-14T14:18:59.474Z,99766.22
2023-05-14T14:21:25.961Z,99756.25
2023-05-14T14:23:52.495Z,99759.97
2023-05-14T14:26:19.031Z,99759.84
2023-05-14T14:28:45.527Z,99754.44
2023-05-14T14:31:13.408Z,99749.34
2023-05-14T14:33:39.805Z,99746.13
2023-05-14T14:36:06.504Z,99746.66
2023-05-14T14:38:32.949Z,99743.97
2023-05-14T14:40:59.365Z,99744.28
2023-05-14T14:43:25.717Z,99740.84
2023-05-14T14:45:52.088Z,99743.75
2023-05-14T14:48:33.790Z,99735.91
2023-05-14T14:51:03.791Z,99743.38
2023-05-14T14:53:31.139Z,99740.69
2023-05-14T14:55:58.178Z,99739.25
2023-05-14T14:58:24.746Z,99742.47
2023-05-14T15:00:53.107Z,99734.22
2023-05-14T15:03:20.155Z,99732.44
2023-05-14T15:05:47.082Z,99725.44
2023-05-14T15:08:14.132Z,99726.31
2023-05-14T15:10:41.557Z,99723.63
2023-05-14T15:13:08.964Z,99728.03
2023-05-14T15:15:35.915Z,99731.00
2023-05-14T15:18:03.694Z,99738.09
2023-05-14T15:20:30.505Z,99729.88
2023-05-14T15:22:57.041Z,99724.13
2023-05-14T15:25:25.118Z,99729.53
2023-05-14T15:27:52.121Z,99726.06
2023-05-14T15:30:18.493Z,99728.16
2023-05-14T15:32:45.509Z,99719.78
2023-05-14T15:35:12.582Z,99718.09
2023-05-14T15:37:43.033Z,99717.22
2023-05-14T15:40:10.380Z,99716.59
2023-05-14T15:42:38.423Z,99713.44
2023-05-14T15:45:05.478Z,99713.50
2023-05-14T15:47:32.081Z,99712.72
2023-05-14T15:49:59.211Z,99706.59
2023-05-14T15:52:25.869Z,99711.53
2023-05-14T15:54:52.298Z,99707.66
2023-05-14T15:57:20.001Z,99705.41
2023-05-14T15:59:47.008Z,99714.34
2023-05-14T16:02:14.166Z,99701.09
2023-05-14T16:04:40.629Z,99697.59
2023-05-14T16:07:10.893Z,99698.78
2023-05-14T16:09:38.279Z,99698.78
2023-05-14T16:12:05.925Z,99705.22
2023-05-14T16:14:34.089Z,99699.41
2023-05-14T16:17:01.715Z,99695.84
2023-05-14T16:19:28.207Z,99701.53
2023-05-14T16:21:54.560Z,99698.91
2023-05-14T16:24:20.969Z,99708.28
2023-05-14T16:26:47.398Z,99707.94
2023-05-14T16:29:13.943Z,99710.88
2023-05-14T16:31:40.764Z,99704.97
2023-05-14T16:34:07.162Z,99711.59
2023-05-14T16:36:33.500Z,99720.13
2023-05-14T16:39:07.361Z,99718.50
2023-05-14T16:41:35.259Z,99717.72
2023-05-14T16:44:01.652Z,99714.41
2023-05-14T16:46:29.191Z,99724.78
2023-05-14T16:48:56.157Z,99719.84
2023-05-14T16:51:22.605Z,99720.88
2023-05-14T16:53:49.065Z,99720.50
2023-05-14T16:56:15.540Z,99712.25
2023-05-14T16:58:41.995Z,99707.53
2023-05-14T17:01:09.869Z,99712.47
2023-05-14T17:03:36.811Z,99716.66
2023-05-14T17:06:04.578Z,99706.53
2023-05-14T17:08:33.466Z,99703.63
2023-05-14T17:10:59.950Z,99703.22
2023-05-14T17:13:26.457Z,99704.91
2023-05-14T17:15:52.940Z,99694.16
2023-05-14T17:18:19.367Z,99691.28
2023-05-14T17:20:45.872Z,99688.81
2023-05-14T17:23:12.385Z,99693.97
2023-05-14T17:25:38.790Z,99695.19
2023-05-14T17:28:05.509Z,99700.38
2023-05-14T17:30:32.002Z,99704.69
2023-05-14T17:32:58.529Z,99711.09
2023-05-14T17:35:25.767Z,99710.88
2023-05-14T17:37:52.296Z,99706.16
2023-05-14T17:40:18.722Z,99702.22
2023-05-14T17:42:45.507Z,99706.16
2023-05-14T17:45:13.129Z,99710.66
2023-05-14T17:47:39.642Z,99707.97
2023-05-14T17:50:06.703Z,99700.75
2023-05-14T17:52:33.052Z,99707.38
2023-05-14T17:54:59.438Z,99700.78
2023-05-14T17:57:26.539Z,99709.63
2023-05-14T17:59:53.032Z,99712.31
2023-05-14T18:02:19.393Z,99705.91
2023-05-14T18:04:46.650Z,99714.38
2023-05-14T18:07:13.231Z,99711.47
2023-05-14T18:09:39.690Z,99709.66
2023-05-14T18:12:06.527Z,99707.16
2023-05-14T18:14:33.055Z,99697.47
2023-05-14T18:16:59.649Z,99702.44
2023-05-14T18:19:26.026Z,99707.38
2023-05-14T18:21:55.220Z,99708.19
2023-05-14T18:24:22.066Z,99703.63
2023-05-14T18:26:48.626Z,99707.78
2023-05-14T18:29:15.007Z,99704.25
2023-05-14T18:31:41.395Z,99706.06
2023-05-14T18:34:07.863Z,99710.19
2023-05-14T18:36:34.250Z,99712.66
2023-05-14T18:39:00.608Z,99707.72
2023-05-14T18:41:27.027Z,99715.13
2023-05-14T18:43:53.381Z,99711.19
2023-05-14T18:46:19.834Z,99709.13
2023-05-14T18:48:46.259Z,99717.56
2023-05-14T18:51:12.994Z,99725.38
2023-05-14T18:53:39.390Z,99721.03
2023-05-14T18:56:05.826Z,99716.84
2023-05-14T18:58:32.253Z,99721.19
2023-05-14T19:00:58.992Z,99724.03
2023-05-14T19:03:25.932Z,99726.03
2023-05-14T19:05:53.631Z,99729.28
2023-05-14T19:08:19.999Z,99726.03
2023-05-14T19:10:46.789Z,99739.56
2023-05-14T19:13:13.157Z,99744.06
2023-05-14T19:15:39.593Z,99737.63
2023-05-14T19:18:06.205Z,99739.66
2023-05-14T19:20:32.606Z,99739.63
2023-05-14T19:22:58.963Z,99744.75
2023-05-14T19:25:25.583Z,99745.16
2023-05-14T19:27:53.577Z,99740.19
2023-05-14T19:30:20.929Z,99736.88
2023-05-14T19:32:47.456Z,99748.56
2023-05-14T19:35:14.149Z,99741.38
2023-05-14T19:37:40.631Z,99750.75
2023-05-14T19:40:07.456Z,99747.88
2023-05-14T19:42:33.832Z,99747.38
2023-05-14T19:45:00.241Z,99747.75
2023-05-14T19:47:28.476Z,99737.47
2023-05-14T19:49:55.010Z,99737.84
2023-05-14T19:52:21.382Z,99735.53
2023-05-14T19:54:47.902Z,99736.94
2023-05-14T19:57:14.255Z,99732.22
2023-05-14T19:59:41.336Z,99727.41
2023-05-14T20:02:07.908Z,99726.78
2023-05-14T20:04:34.793Z,99730.09
2023-05-14T20:07:01.525Z,99725.13
2023-05-14T20:09:28.034Z,99729.44
2023-05-14T20:11:54.692Z,99730.06
2023-05-14T20:14:21.050Z,99720.63
2023-05-14T20:16:48.862Z,99715.72
2023-05-14T20:19:16.408Z,99713.56
2023-05-14T20:21:42.898Z,99714.22
2023-05-14T20:24:09.271Z,99712.41
2023-05-14T20:26:35.779Z,99710.25
2023-05-14T20:29:02.151Z,99708.59
2023-05-14T20:31:28.823Z,99708.06
2023-05-14T20:33:55.457Z,99710.13
2023-05-14T20:36:22.215Z,99702.50
2023-05-14T20:38:48.619Z,99700.22
2023-05-14T20:41:15.101Z,99692.75
2023-05-14T20:43:41.629Z,99696.63
2023-05-14T20:46:08.962Z,99695.63
2023-05-14T20:48:35.434Z,99686.97
2023-05-14T20:51:04.716Z,99682.91
2023-05-14T20:53:31.101Z,99684.84
2023-05-14T20:55:58.972Z,99677.56
2023-05-14T20:58:25.379Z,99672.97
2023-05-14T21:00:52.024Z,99675.59
2023-05-14T21:03:18.499Z,99677.81
2023-05-14T21:05:44.943Z,99667.91
2023-05-14T21:08:11.370Z,99665.59
2023-05-14T21:10:37.736Z,99670.94
2023-05-14T21:13:04.171Z,99675.25
2023-05-14T21:15:31.167Z,99666.53
2023-05-14T21:17:57.671Z,99670.97
2023-05-14T21:20:24.247Z,99666.47
2023-05-14T21:22:50.700Z,99661.44
2023-05-14T21:25:17.645Z,99657.44
2023-05-14T21:27:44.304Z,99658.41
2023-05-14T21:30:11.271Z,99654.50
2023-05-14T21:32:37.721Z,99658.56
2023-05-14T21:35:05.355Z,99657.00
2023-05-14T21:37:31.758Z,99652.09
2023-05-14T21:39:58.163Z,99652.41
2023-05-14T21:42:24.660Z,99651.59
2023-05-14T21:44:51.004Z,99649.16
2023-05-14T21:47:17.409Z,99645.31
2023-05-14T21:49:43.788Z,99638.31
2023-05-14T21:52:10.776Z,99639.06
2023-05-14T21:54:37.149Z,99634.13
2023-05-14T21:57:03.677Z,99632.38
2023-05-14T21:59:30.004Z,99626.88
2023-05-14T22:02:06.979Z,99628.13
2023-05-14T22:04:34.163Z,99623.28
2023-05-14T22:07:00.558Z,99617.50
2023-05-14T22:09:27.122Z,99619.16
2023-05-14T22:11:53.506Z,99620.38
2023-05-14T22:14:19.873Z,99610.22
2023-05-14T22:16:47.148Z,99618.63
2023-05-14T22:19:13.648Z,99620.69
2023-05-14T22:21:40.040Z,99617.16
2023-05-14T22:24:06.676Z,99615.25
2023-05-14T22:26:33.084Z,99610.56
2023-05-14T22:28:59.446Z,99610.47
2023-05-14T22:31:25.824Z,99607.06
2023-05-14T22:33:52.955Z,99606.69
2023-05-14T22:36:19.473Z,99599.53
2023-05-14T22:38:46.137Z,99602.56
2023-05-14T22:41:12.541Z,99599.09
2023-05-14T22:43:38.890Z,99596.28
2023-05-14T22:46:05.357Z,99598.25
2023-05-14T22:48:31.928Z,99586.50
2023-05-14T22:50:58.265Z,99596.59
2023-05-14T22:53:25.353Z,99584.44
2023-05-14T22:55:52.946Z,99581.88
2023-05-14T22:58:19.416Z,99578.81
2023-05-14T23:00:45.849Z,99584.03
2023-05-14T23:03:12.361Z,99576.28
2023-05-14T23:05:38.741Z,99563.59
2023-05-14T23:08:05.624Z,99560.16
2023-05-14T23:10:35.237Z,99561.03
2023-05-14T23:13:01.716Z,99563.47
2023-05-14T23:15:28.105Z,99561.28
2023-05-14T23:17:54.564Z,99549.47
2023-05-14T23:20:21.272Z,99545.94
2023-05-14T23:22:47.726Z,99548.34
2023-05-14T23:25:14.176Z,99535.88
2023-05-14T23:27:40.606Z,99545.59
2023-05-14T23:30:07.812Z,99545.53
2023-05-14T23:32:34.382Z,99540.28
2023-05-14T23:35:00.863Z,99535.34
2023-05-14T23:37:27.200Z,99531.16
2023-05-14T23:39:53.625Z,99528.34
2023-05-14T23:42:20.194Z,99528.22
2023-05-14T23:44:46.627Z,99519.72
2023-05-14T23:47:13.088Z,99519.16
2023-05-14T23:49:40.760Z,99517.47
2023-05-14T23:52:07.224Z,99510.25
2023-05-14T23:54:33.597Z,99508.16
2023-05-14T23:57:00.498Z,99510.31
2023-05-14T23:59:26.884Z,99505.81
